createdAt,value
2018-07-24T00:01:28.249Z,17.60
2018-07-24T00:03:56.305Z,16.77
2018-07-24T00:06:24.790Z,17.97
2018-07-24T00:08:53.762Z,17.50
2018-07-24T00:11:23.076Z,17.20
2018-07-24T00:13:52.696Z,17.30
2018-07-24T00:16:20.630Z,16.27
2018-07-24T00:18:49.240Z,18.53
2018-07-24T00:21:17.160Z,18.83
2018-07-24T00:23:45.088Z,17.20
2018-07-24T00:26:13.625Z,17.93
2018-07-24T00:28:41.628Z,17.60
2018-07-24T00:31:10.242Z,18.73
2018-07-24T00:33:38.838Z,19.83
2018-07-24T00:36:07.988Z,19.67
2018-07-24T00:38:37.471Z,19.67
2018-07-24T00:41:06.354Z,18.07
2018-07-24T00:43:34.941Z,19.57
2018-07-24T00:46:04.408Z,20.70
2018-07-24T00:48:32.988Z,22.13
2018-07-24T00:51:00.968Z,22.90
2018-07-24T00:53:30.357Z,22.90
2018-07-24T00:55:58.955Z,22.37
2018-07-24T00:58:26.969Z,22.50
2018-07-24T01:00:54.770Z,21.63
2018-07-24T01:03:23.224Z,22.20
2018-07-24T01:05:51.382Z,22.60
2018-07-24T01:08:19.626Z,20.83
2018-07-24T01:10:50.129Z,21.07
2018-07-24T01:13:19.590Z,23.03
2018-07-24T01:15:47.678Z,21.70
2018-07-24T01:18:16.095Z,23.33
2018-07-24T01:20:44.236Z,23.87
2018-07-24T01:23:13.369Z,21.57
2018-07-24T01:25:41.887Z,20.07
2018-07-24T01:28:11.611Z,22.77
2018-07-24T01:30:40.020Z,19.07
2018-07-24T01:33:08.495Z,21.47
2018-07-24T01:35:37.746Z,20.33
2018-07-24T01:38:07.092Z,21.40
2018-07-24T01:40:37.531Z,20.73
2018-07-24T01:43:06.079Z,21.10
2018-07-24T01:45:35.950Z,20.87
2018-07-24T01:48:05.333Z,23.33
2018-07-24T01:50:33.922Z,22.37
2018-07-24T01:53:04.112Z,22.40
2018-07-24T01:55:34.304Z,21.80
2018-07-24T01:58:02.714Z,19.37
2018-07-24T02:00:30.708Z,23.00
2018-07-24T02:02:59.351Z,23.63
2018-07-24T02:05:27.288Z,22.27
2018-07-24T02:07:55.412Z,21.83
2018-07-24T02:10:26.103Z,24.03
2018-07-24T02:12:54.069Z,22.33
2018-07-24T02:15:24.648Z,21.80
2018-07-24T02:17:55.675Z,23.57
2018-07-24T02:20:25.328Z,22.60
2018-07-24T02:22:57.755Z,22.33
2018-07-24T02:25:31.033Z,21.80
2018-07-24T02:28:00.293Z,20.80
2018-07-24T02:30:30.175Z,19.87
2018-07-24T02:33:02.189Z,20.83
2018-07-24T02:35:34.912Z,20.77
2018-07-24T02:38:09.720Z,21.17
2018-07-24T02:40:38.849Z,20.03
2018-07-24T02:43:08.731Z,22.83
2018-07-24T02:45:36.946Z,19.60
2018-07-24T02:48:09.890Z,21.40
2018-07-24T02:50:40.033Z,20.97
2018-07-24T02:53:12.758Z,22.17
2018-07-24T02:55:44.981Z,22.40
2018-07-24T02:58:16.571Z,22.13
2018-07-24T03:00:46.613Z,20.13
2018-07-24T03:03:17.939Z,20.73
2018-07-24T03:05:49.079Z,23.10
2018-07-24T03:08:19.499Z,22.27
2018-07-24T03:10:49.936Z,24.03
2018-07-24T03:13:19.166Z,20.60
2018-07-24T03:15:51.069Z,25.23
2018-07-24T03:18:21.547Z,22.30
2018-07-24T03:20:55.465Z,23.40
2018-07-24T03:23:25.305Z,21.70
2018-07-24T03:25:58.972Z,21.13
2018-07-24T03:28:29.791Z,20.93
2018-07-24T03:31:01.548Z,23.83
2018-07-24T03:33:31.797Z,25.77
2018-07-24T03:36:04.282Z,22.10
2018-07-24T03:38:34.604Z,24.87
2018-07-24T03:41:04.051Z,22.33
2018-07-24T03:43:36.500Z,23.73
2018-07-24T03:46:06.011Z,24.00
2018-07-24T03:48:37.132Z,24.00
2018-07-24T03:51:12.451Z,24.13
2018-07-24T03:53:43.635Z,26.40
2018-07-24T03:56:13.385Z,23.37
2018-07-24T03:58:46.548Z,22.20
2018-07-24T04:01:17.137Z,22.17
2018-07-24T04:03:49.401Z,21.90
2018-07-24T04:06:21.135Z,23.00
2018-07-24T04:08:52.702Z,21.73
2018-07-24T04:11:28.502Z,23.37
2018-07-24T04:14:03.503Z,22.50
2018-07-24T04:16:34.575Z,23.13
2018-07-24T04:19:04.304Z,23.07
2018-07-24T04:21:34.036Z,25.10
2018-07-24T04:24:10.915Z,22.83
2018-07-24T04:26:38.860Z,25.50
2018-07-24T04:29:06.667Z,22.90
2018-07-24T04:31:34.599Z,24.73
2018-07-24T04:34:02.567Z,26.67
2018-07-24T04:36:30.557Z,23.03
2018-07-24T04:38:58.444Z,26.43
2018-07-24T04:41:26.768Z,23.87
2018-07-24T04:43:54.705Z,25.13
2018-07-24T04:46:23.269Z,27.90
2018-07-24T04:48:52.108Z,23.00
2018-07-24T04:51:20.638Z,25.77
2018-07-24T04:53:48.557Z,25.13
2018-07-24T04:56:16.327Z,25.90
2018-07-24T04:58:45.303Z,26.30
2018-07-24T05:01:13.341Z,25.87
2018-07-24T05:03:41.269Z,25.43
2018-07-24T05:06:09.849Z,24.87
2018-07-24T05:08:38.615Z,25.70
2018-07-24T05:11:06.994Z,24.80
2018-07-24T05:13:34.740Z,25.80
2018-07-24T05:16:02.674Z,25.20
2018-07-24T05:18:31.357Z,25.40
2018-07-24T05:21:00.568Z,26.60
2018-07-24T05:23:28.508Z,24.63
2018-07-24T05:25:56.548Z,25.53
2018-07-24T05:28:25.222Z,25.67
2018-07-24T05:30:53.214Z,24.50
2018-07-24T05:33:21.192Z,23.07
2018-07-24T05:35:49.736Z,24.73
2018-07-24T05:38:17.696Z,21.43
2018-07-24T05:40:45.870Z,23.43
2018-07-24T05:43:13.789Z,21.70
2018-07-24T05:45:41.710Z,21.20
2018-07-24T05:48:09.612Z,21.63
2018-07-24T05:50:37.549Z,21.23
2018-07-24T05:53:05.456Z,22.27
2018-07-24T05:55:33.374Z,21.33
2018-07-24T05:58:02.104Z,19.23
2018-07-24T06:00:30.059Z,20.63
2018-07-24T06:02:58.314Z,18.60
2018-07-24T06:05:26.930Z,17.70
2018-07-24T06:07:55.383Z,18.63
2018-07-24T06:10:23.329Z,18.53
2018-07-24T06:12:52.625Z,17.80
2018-07-24T06:15:20.570Z,18.03
2018-07-24T06:17:48.462Z,19.40
2018-07-24T06:20:17.006Z,17.00
2018-07-24T06:22:45.698Z,18.50
2018-07-24T06:25:14.292Z,20.50
2018-07-24T06:27:42.803Z,19.07
2018-07-24T06:30:10.738Z,18.20
2018-07-24T06:32:39.688Z,20.37
2018-07-24T06:35:08.381Z,18.73
2018-07-24T06:37:37.625Z,15.90
2018-07-24T06:40:06.196Z,18.10
2018-07-24T06:42:35.376Z,16.00
2018-07-24T06:45:04.337Z,17.63
2018-07-24T06:47:33.521Z,18.20
2018-07-24T06:50:02.606Z,17.80
2018-07-24T06:52:30.554Z,16.63
2018-07-24T06:54:59.818Z,18.00
2018-07-24T06:57:28.321Z,17.30
2018-07-24T06:59:56.235Z,17.10
2018-07-24T07:02:24.445Z,15.90
2018-07-24T07:04:52.992Z,16.90
2018-07-24T07:07:21.564Z,16.97
2018-07-24T07:09:49.582Z,15.80
2018-07-24T07:12:18.037Z,14.73
2018-07-24T07:14:46.243Z,15.83
2018-07-24T07:17:19.705Z,15.07
2018-07-24T07:19:47.616Z,13.57
2018-07-24T07:22:15.648Z,14.30
2018-07-24T07:24:43.578Z,15.63
2018-07-24T07:27:14.592Z,13.37
2018-07-24T07:29:42.674Z,14.13
2018-07-24T07:32:10.423Z,12.53
2018-07-24T07:34:38.297Z,14.23
2018-07-24T07:37:06.187Z,13.57
2018-07-24T07:39:34.092Z,12.87
2018-07-24T07:42:02.024Z,13.80
2018-07-24T07:44:30.795Z,12.00
2018-07-24T07:46:58.725Z,11.80
2018-07-24T07:49:27.142Z,11.90
2018-07-24T07:51:55.077Z,12.77
2018-07-24T07:54:23.004Z,10.63
2018-07-24T07:56:51.927Z,11.93
2018-07-24T07:59:21.318Z,10.43
2018-07-24T08:01:49.871Z,10.03
2018-07-24T08:04:17.925Z,9.17
2018-07-24T08:06:45.956Z,10.10
2018-07-24T08:09:14.693Z,9.47
2018-07-24T08:11:43.093Z,8.40
2018-07-24T08:14:11.037Z,7.60
2018-07-24T08:16:39.637Z,8.00
2018-07-24T08:19:07.569Z,7.20
2018-07-24T08:21:35.686Z,8.47
2018-07-24T08:24:03.762Z,8.30
2018-07-24T08:26:33.299Z,7.27
2018-07-24T08:29:01.213Z,6.20
2018-07-24T08:31:28.998Z,8.07
2018-07-24T08:33:57.364Z,7.60
2018-07-24T08:36:25.368Z,6.90
2018-07-24T08:38:53.327Z,5.67
2018-07-24T08:41:21.259Z,5.47
2018-07-24T08:43:49.280Z,6.00
2018-07-24T08:46:18.971Z,4.90
2018-07-24T08:48:46.892Z,5.33
2018-07-24T08:51:15.463Z,5.83
2018-07-24T08:53:43.596Z,4.30
2018-07-24T08:56:11.932Z,4.50
2018-07-24T08:58:39.709Z,5.43
2018-07-24T09:01:07.859Z,5.50
2018-07-24T09:03:35.737Z,4.80
2018-07-24T09:06:03.635Z,5.10
2018-07-24T09:08:31.573Z,5.30
2018-07-24T09:10:59.379Z,6.33
2018-07-24T09:13:27.892Z,4.37
2018-07-24T09:15:55.804Z,4.67
2018-07-24T09:18:23.714Z,5.10
2018-07-24T09:20:51.690Z,5.63
2018-07-24T09:23:19.627Z,4.80
2018-07-24T09:25:47.569Z,5.50
2018-07-24T09:28:15.342Z,5.00
2018-07-24T09:30:44.134Z,5.00
2018-07-24T09:33:11.922Z,5.17
2018-07-24T09:35:39.828Z,4.90
2018-07-24T09:38:07.782Z,5.30
2018-07-24T09:40:35.821Z,4.93
2018-07-24T09:43:03.571Z,5.67
2018-07-24T09:45:31.605Z,5.00
2018-07-24T09:47:59.605Z,4.50
2018-07-24T09:50:27.905Z,4.83
2018-07-24T09:52:56.387Z,5.00
2018-07-24T09:55:24.980Z,4.80
2018-07-24T09:57:53.660Z,4.80
2018-07-24T10:00:27.068Z,5.27
2018-07-24T10:02:55.590Z,4.70
2018-07-24T10:05:23.781Z,5.97
2018-07-24T10:07:52.068Z,4.80
2018-07-24T10:10:19.845Z,4.30
2018-07-24T10:12:48.150Z,5.17
2018-07-24T10:15:16.074Z,5.30
2018-07-24T10:17:44.539Z,4.90
2018-07-24T10:20:12.505Z,4.90
2018-07-24T10:22:44.881Z,4.93
2018-07-24T10:25:16.440Z,5.23
2018-07-24T10:27:44.352Z,4.00
2018-07-24T10:30:12.215Z,4.47
2018-07-24T10:35:15.724Z,4.50
2018-07-24T10:37:44.240Z,4.93
2018-07-24T10:40:13.002Z,5.73
2018-07-24T10:42:40.789Z,6.03
2018-07-24T10:45:09.850Z,5.47
2018-07-24T10:47:37.692Z,5.60
2018-07-24T10:50:05.797Z,4.63
2018-07-24T10:52:33.695Z,4.50
2018-07-24T10:55:02.378Z,4.70
2018-07-24T10:57:30.970Z,5.60
2018-07-24T10:59:59.452Z,4.30
2018-07-24T11:02:27.713Z,5.30
2018-07-24T11:04:57.276Z,5.20
2018-07-24T11:07:26.196Z,5.57
2018-07-24T11:09:54.099Z,5.57
2018-07-24T11:12:22.531Z,6.03
2018-07-24T11:14:51.296Z,6.03
2018-07-24T11:17:19.300Z,6.13
2018-07-24T11:19:47.566Z,4.60
2018-07-24T11:22:15.576Z,4.60
2018-07-24T11:24:43.335Z,5.00
2018-07-24T11:27:11.217Z,6.90
2018-07-24T11:29:39.094Z,7.00
2018-07-24T11:32:07.945Z,7.37
2018-07-24T11:34:35.917Z,6.13
2018-07-24T11:37:04.308Z,6.60
2018-07-24T11:39:32.315Z,6.70
2018-07-24T11:42:00.624Z,6.10
2018-07-24T11:44:28.580Z,6.53
2018-07-24T11:46:56.521Z,6.30
2018-07-24T11:49:24.434Z,5.77
2018-07-24T11:51:52.436Z,5.63
2018-07-24T11:54:20.790Z,5.80
2018-07-24T11:56:48.744Z,4.50
2018-07-24T11:59:17.446Z,5.83
2018-07-24T12:01:45.231Z,5.47
2018-07-24T12:04:14.875Z,5.10
2018-07-24T12:06:43.813Z,5.63
2018-07-24T12:09:12.567Z,5.63
2018-07-24T12:11:41.122Z,6.30
2018-07-24T12:14:09.056Z,5.50
2018-07-24T12:16:38.035Z,4.73
2018-07-24T12:19:05.979Z,5.50
2018-07-24T12:21:33.762Z,5.37
2018-07-24T12:26:59.369Z,4.57
2018-07-24T18:02:53.752Z,3.50
2018-07-24T18:05:21.546Z,3.40
2018-07-24T18:07:49.479Z,3.60
2018-07-24T18:10:17.277Z,3.43
2018-07-24T18:12:45.228Z,3.37
2018-07-24T18:15:13.142Z,3.97
2018-07-24T18:17:41.103Z,3.20
2018-07-24T18:20:10.260Z,3.57
2018-07-24T18:22:38.198Z,3.90
2018-07-24T18:25:06.202Z,3.23
2018-07-24T18:27:34.276Z,4.90
2018-07-24T18:30:02.637Z,4.27
2018-07-24T18:32:30.701Z,5.17
2018-07-24T18:34:58.617Z,4.27
2018-07-24T18:37:26.510Z,4.67
2018-07-24T18:39:54.861Z,5.10
2018-07-24T18:42:23.753Z,4.83
2018-07-24T18:44:52.438Z,5.73
2018-07-24T18:47:21.640Z,4.70
2018-07-24T18:49:49.618Z,4.40
2018-07-24T18:52:17.605Z,4.40
2018-07-24T18:54:45.468Z,4.60
2018-07-24T18:57:13.439Z,4.90
2018-07-24T18:59:42.341Z,21.30
2018-07-24T19:02:10.846Z,6.87
2018-07-24T19:04:38.614Z,6.63
2018-07-24T19:07:07.009Z,6.00
2018-07-24T19:09:35.205Z,25.03
2018-07-24T19:12:03.920Z,26.37
2018-07-24T19:14:32.724Z,8.63
2018-07-24T19:17:00.597Z,6.63
2018-07-24T19:19:29.543Z,5.73
2018-07-24T19:21:57.522Z,4.83
2018-07-24T19:24:26.092Z,5.27
2018-07-24T19:26:54.337Z,5.13
2018-07-24T19:29:22.094Z,5.63
2018-07-24T19:31:50.417Z,5.17
2018-07-24T19:34:18.723Z,5.03
2018-07-24T19:36:46.641Z,5.20
2018-07-24T19:39:14.392Z,6.30
2018-07-24T19:41:42.295Z,5.70
2018-07-24T19:44:10.594Z,5.27
2018-07-24T19:46:38.485Z,5.50
2018-07-24T19:49:06.899Z,6.37
2018-07-24T19:51:34.788Z,5.20
2018-07-24T19:54:02.971Z,5.10
2018-07-24T19:56:31.543Z,5.27
2018-07-24T19:58:59.953Z,4.33
2018-07-24T20:01:29.526Z,5.03
2018-07-24T20:03:59.240Z,4.23
2018-07-24T20:06:40.154Z,4.60
2018-07-24T20:09:10.113Z,4.93
2018-07-24T20:11:38.123Z,5.00
2018-07-24T20:14:06.333Z,5.17
2018-07-24T20:16:34.170Z,5.00
2018-07-24T20:19:02.185Z,4.40
2018-07-24T20:21:29.959Z,4.83
2018-07-24T20:23:57.743Z,4.70
2018-07-24T20:26:26.006Z,5.17
2018-07-24T20:28:53.936Z,4.57
2018-07-24T20:31:26.763Z,5.13
2018-07-24T20:33:57.813Z,4.60
2018-07-24T20:36:25.842Z,5.40
2018-07-24T20:38:54.476Z,5.00
2018-07-24T20:41:23.075Z,5.70
2018-07-24T20:43:50.981Z,5.57
2018-07-24T20:46:19.238Z,6.00
2018-07-24T20:48:47.152Z,5.13
2018-07-24T20:51:15.125Z,6.10
2018-07-24T20:53:42.973Z,5.00
2018-07-24T20:56:10.890Z,4.90
2018-07-24T20:58:38.859Z,6.80
2018-07-24T21:01:06.746Z,6.83
2018-07-24T21:03:34.708Z,6.67
2018-07-24T21:06:02.642Z,6.80
2018-07-24T21:08:30.887Z,6.23
2018-07-24T21:19:59.068Z,6.70
2018-07-24T21:22:27.130Z,7.70
2018-07-24T21:24:55.039Z,8.23
2018-07-24T21:27:22.994Z,6.90
2018-07-24T21:32:44.026Z,6.73
2018-07-24T21:35:11.983Z,6.97
2018-07-24T21:37:40.809Z,7.13
2018-07-24T21:40:09.353Z,5.97
2018-07-24T21:42:37.923Z,6.70
2018-07-24T21:45:05.689Z,5.50
2018-07-24T21:47:33.568Z,6.47
2018-07-24T21:50:01.473Z,6.70
2018-07-24T21:52:35.224Z,6.40
2018-07-24T21:55:03.213Z,6.20
2018-07-24T21:57:31.081Z,6.87
2018-07-24T21:59:59.016Z,7.57
2018-07-24T22:02:26.812Z,6.40
2018-07-24T22:04:54.726Z,7.40
2018-07-24T22:07:23.028Z,6.53
2018-07-24T22:09:50.942Z,7.07
2018-07-24T22:12:19.005Z,7.60
2018-07-24T22:14:46.905Z,6.40
2018-07-24T22:17:14.784Z,6.43
2018-07-24T22:19:43.383Z,6.40
2018-07-24T22:22:12.177Z,5.70
2018-07-24T22:24:40.840Z,7.90
2018-07-24T22:27:08.863Z,7.83
2018-07-24T22:29:38.112Z,6.00
2018-07-24T22:32:06.069Z,7.13
2018-07-24T22:34:33.931Z,7.40
2018-07-24T22:40:18.175Z,6.80
2018-07-24T22:42:52.355Z,5.80
2018-07-24T22:48:20.962Z,6.50
2018-07-24T22:50:55.114Z,6.70
2018-07-24T22:53:23.243Z,6.87
2018-07-24T22:55:51.801Z,6.73
2018-07-24T22:58:19.800Z,7.60
2018-07-24T23:00:47.767Z,6.67
2018-07-24T23:03:16.272Z,7.50
2018-07-24T23:05:44.524Z,7.33
2018-07-24T23:08:12.943Z,7.70
2018-07-24T23:11:01.221Z,7.20
2018-07-24T23:13:35.955Z,7.50
2018-07-24T23:16:04.737Z,6.67
2018-07-24T23:18:33.232Z,7.27
2018-07-24T23:21:01.209Z,7.97
2018-07-24T23:23:29.182Z,8.33
2018-07-24T23:25:57.131Z,7.30
2018-07-24T23:28:25.073Z,7.73
2018-07-24T23:30:53.965Z,6.80
2018-07-24T23:33:21.890Z,7.80
2018-07-24T23:38:50.386Z,8.30
2018-07-24T23:44:18.735Z,8.27
2018-07-24T23:49:47.444Z,8.40
2018-07-24T23:52:15.345Z,8.40
2018-07-24T23:54:43.346Z,6.77
2018-07-24T23:57:11.821Z,8.00
2018-07-24T23:59:40.530Z,7.73
